sensor_id;sensor_type;location;lat;lon;timestamp;pressure;altitude;pressure_sealevel;temperature;humidity
66396;BME280;53207;51.378;-1.342;2023-02-20T00:02:19;101285.25;;;19.02;39.37
66396;BME280;53207;51.378;-1.342;2023-02-20T00:04:47;101281.22;;;18.96;39.43
66396;BME280;53207;51.378;-1.342;2023-02-20T00:07:14;101283.91;;;18.96;39.05
66396;BME280;53207;51.378;-1.342;2023-02-20T00:09:41;101280.13;;;18.95;38.94
66396;BME280;53207;51.378;-1.342;2023-02-20T00:12:08;101279.95;;;18.93;38.80
66396;BME280;53207;51.378;-1.342;2023-02-20T00:14:35;101282.03;;;18.92;38.73
66396;BME280;53207;51.378;-1.342;2023-02-20T00:17:03;101278.37;;;18.64;38.72
66396;BME280;53207;51.378;-1.342;2023-02-20T00:19:30;101276.55;;;18.82;38.70
66396;BME280;53207;51.378;-1.342;2023-02-20T00:21:57;101280.25;;;18.90;38.31
66396;BME280;53207;51.378;-1.342;2023-02-20T00:24:25;101276.70;;;18.90;38.17
66396;BME280;53207;51.378;-1.342;2023-02-20T00:26:53;101273.02;;;18.75;38.26
66396;BME280;53207;51.378;-1.342;2023-02-20T00:29:22;101274.52;;;19.18;38.28
66396;BME280;53207;51.378;-1.342;2023-02-20T00:31:50;101269.03;;;19.20;38.10
66396;BME280;53207;51.378;-1.342;2023-02-20T00:34:17;101262.13;;;19.12;38.12
66396;BME280;53207;51.378;-1.342;2023-02-20T00:36:45;101261.67;;;18.83;38.11
66396;BME280;53207;51.378;-1.342;2023-02-20T00:39:12;101264.73;;;18.54;38.09
66396;BME280;53207;51.378;-1.342;2023-02-20T00:41:39;101264.04;;;18.77;38.00
66396;BME280;53207;51.378;-1.342;2023-02-20T00:44:07;101257.64;;;18.75;37.94
66396;BME280;53207;51.378;-1.342;2023-02-20T00:46:34;101250.80;;;18.97;37.87
66396;BME280;53207;51.378;-1.342;2023-02-20T00:49:01;101247.01;;;18.76;37.75
66396;BME280;53207;51.378;-1.342;2023-02-20T00:51:29;101246.86;;;18.39;37.82
66396;BME280;53207;51.378;-1.342;2023-02-20T00:53:56;101241.18;;;18.65;37.75
66396;BME280;53207;51.378;-1.342;2023-02-20T00:56:23;101234.31;;;18.78;37.78
66396;BME280;53207;51.378;-1.342;2023-02-20T00:58:50;101240.59;;;18.83;37.65
66396;BME280;53207;51.378;-1.342;2023-02-20T01:01:18;101247.87;;;18.43;37.84
66396;BME280;53207;51.378;-1.342;2023-02-20T01:03:45;101239.38;;;18.79;37.58
66396;BME280;53207;51.378;-1.342;2023-02-20T01:06:13;101240.17;;;18.60;37.47
66396;BME280;53207;51.378;-1.342;2023-02-20T01:08:40;101238.82;;;18.76;37.49
66396;BME280;53207;51.378;-1.342;2023-02-20T01:11:07;101239.36;;;18.70;37.51
66396;BME280;53207;51.378;-1.342;2023-02-20T01:13:34;101235.63;;;18.50;37.43
66396;BME280;53207;51.378;-1.342;2023-02-20T01:16:03;101238.20;;;18.68;37.46
66396;BME280;53207;51.378;-1.342;2023-02-20T01:18:30;101236.16;;;18.67;37.42
66396;BME280;53207;51.378;-1.342;2023-02-20T01:20:57;101233.43;;;18.65;37.37
66396;BME280;53207;51.378;-1.342;2023-02-20T01:23:24;101230.88;;;18.47;37.30
66396;BME280;53207;51.378;-1.342;2023-02-20T01:25:52;101230.12;;;18.68;37.27
66396;BME280;53207;51.378;-1.342;2023-02-20T01:28:20;101230.61;;;18.61;37.32
66396;BME280;53207;51.378;-1.342;2023-02-20T01:30:47;101220.50;;;18.66;37.23
66396;BME280;53207;51.378;-1.342;2023-02-20T01:33:14;101217.00;;;18.58;37.28
66396;BME280;53207;51.378;-1.342;2023-02-20T01:35:42;101216.56;;;18.40;37.18
66396;BME280;53207;51.378;-1.342;2023-02-20T01:38:09;101215.22;;;18.42;37.11
66396;BME280;53207;51.378;-1.342;2023-02-20T01:40:36;101215.18;;;18.57;37.13
66396;BME280;53207;51.378;-1.342;2023-02-20T01:43:03;101210.72;;;18.40;37.06
66396;BME280;53207;51.378;-1.342;2023-02-20T01:45:35;101210.74;;;18.73;37.22
66396;BME280;53207;51.378;-1.342;2023-02-20T01:48:03;101214.20;;;18.61;36.99
66396;BME280;53207;51.378;-1.342;2023-02-20T01:50:34;101222.07;;;18.51;37.06
66396;BME280;53207;51.378;-1.342;2023-02-20T01:53:06;101222.08;;;18.36;36.97
66396;BME280;53207;51.378;-1.342;2023-02-20T01:55:38;101222.10;;;18.26;37.05
66396;BME280;53207;51.378;-1.342;2023-02-20T01:58:10;101220.46;;;18.60;36.88
66396;BME280;53207;51.378;-1.342;2023-02-20T02:00:38;101215.68;;;18.59;36.84
66396;BME280;53207;51.378;-1.342;2023-02-20T02:03:08;101218.88;;;18.63;36.74
66396;BME280;53207;51.378;-1.342;2023-02-20T02:05:39;101218.70;;;18.54;36.84
66396;BME280;53207;51.378;-1.342;2023-02-20T02:08:09;101223.94;;;18.40;36.95
66396;BME280;53207;51.378;-1.342;2023-02-20T02:10:43;101219.01;;;18.52;36.80
66396;BME280;53207;51.378;-1.342;2023-02-20T02:13:12;101223.86;;;18.29;36.80
66396;BME280;53207;51.378;-1.342;2023-02-20T02:15:39;101217.34;;;18.51;36.77
66396;BME280;53207;51.378;-1.342;2023-02-20T02:18:18;101213.85;;;18.37;36.91
66396;BME280;53207;51.378;-1.342;2023-02-20T02:21:22;101211.14;;;18.46;36.77
66396;BME280;53207;51.378;-1.342;2023-02-20T02:24:17;101210.99;;;18.49;36.71
66396;BME280;53207;51.378;-1.342;2023-02-20T02:27:16;101212.43;;;18.37;36.80
66396;BME280;53207;51.378;-1.342;2023-02-20T02:30:18;101204.52;;;18.44;36.73
66396;BME280;53207;51.378;-1.342;2023-02-20T02:33:03;101203.10;;;18.46;36.66
66396;BME280;53207;51.378;-1.342;2023-02-20T02:36:45;101195.33;;;18.37;36.74
66396;BME280;53207;51.378;-1.342;2023-02-20T02:39:19;101193.05;;;18.36;36.72
66396;BME280;53207;51.378;-1.342;2023-02-20T02:41:53;101196.75;;;18.38;36.65
66396;BME280;53207;51.378;-1.342;2023-02-20T02:44:30;101195.92;;;18.36;36.67
66396;BME280;53207;51.378;-1.342;2023-02-20T02:47:02;101197.29;;;18.33;36.67
66396;BME280;53207;51.378;-1.342;2023-02-20T02:49:39;101203.31;;;18.33;36.63
66396;BME280;53207;51.378;-1.342;2023-02-20T02:52:11;101199.98;;;18.37;36.58
66396;BME280;53207;51.378;-1.342;2023-02-20T02:54:39;101198.23;;;18.31;36.62
66396;BME280;53207;51.378;-1.342;2023-02-20T02:57:23;101201.00;;;18.59;36.58
66396;BME280;53207;51.378;-1.342;2023-02-20T02:59:55;101199.16;;;18.28;36.57
66396;BME280;53207;51.378;-1.342;2023-02-20T03:02:24;101193.65;;;18.54;36.60
66396;BME280;53207;51.378;-1.342;2023-02-20T03:04:57;101190.92;;;18.26;36.69
66396;BME280;53207;51.378;-1.342;2023-02-20T03:07:26;101191.72;;;18.23;36.84
66396;BME280;53207;51.378;-1.342;2023-02-20T03:09:58;101187.44;;;18.24;36.79
66396;BME280;53207;51.378;-1.342;2023-02-20T03:12:28;101178.94;;;18.21;36.81
66396;BME280;53207;51.378;-1.342;2023-02-20T03:14:59;101177.72;;;18.20;36.82
66396;BME280;53207;51.378;-1.342;2023-02-20T03:17:32;101180.64;;;18.06;36.98
66396;BME280;53207;51.378;-1.342;2023-02-20T03:20:07;101180.78;;;18.16;36.85
66396;BME280;53207;51.378;-1.342;2023-02-20T03:22:38;101177.50;;;18.19;36.79
66396;BME280;53207;51.378;-1.342;2023-02-20T03:25:12;101175.29;;;18.10;36.87
66396;BME280;53207;51.378;-1.342;2023-02-20T03:27:50;101176.21;;;18.13;36.83
66396;BME280;53207;51.378;-1.342;2023-02-20T03:30:22;101177.74;;;18.09;36.85
66396;BME280;53207;51.378;-1.342;2023-02-20T03:32:56;101178.86;;;18.05;36.89
66396;BME280;53207;51.378;-1.342;2023-02-20T03:35:25;101172.15;;;18.09;36.81
66396;BME280;53207;51.378;-1.342;2023-02-20T03:37:54;101168.55;;;18.02;36.92
66396;BME280;53207;51.378;-1.342;2023-02-20T03:40:22;101169.27;;;18.07;36.86
66396;BME280;53207;51.378;-1.342;2023-02-20T03:42:53;101175.92;;;18.02;36.95
66396;BME280;53207;51.378;-1.342;2023-02-20T03:45:24;101175.25;;;18.04;36.89
66396;BME280;53207;51.378;-1.342;2023-02-20T03:47:56;101179.93;;;17.94;37.01
66396;BME280;53207;51.378;-1.342;2023-02-20T03:50:25;101178.01;;;17.99;36.97
66396;BME280;53207;51.378;-1.342;2023-02-20T03:52:53;101179.79;;;18.09;36.82
66396;BME280;53207;51.378;-1.342;2023-02-20T03:55:21;101185.89;;;18.12;36.75
66396;BME280;53207;51.378;-1.342;2023-02-20T03:57:52;101189.63;;;18.13;36.74
66396;BME280;53207;51.378;-1.342;2023-02-20T04:00:25;101188.72;;;18.12;36.73
66396;BME280;53207;51.378;-1.342;2023-02-20T04:02:57;101185.08;;;18.10;36.74
66396;BME280;53207;51.378;-1.342;2023-02-20T04:05:29;101184.41;;;18.13;36.64
66396;BME280;53207;51.378;-1.342;2023-02-20T04:08:04;101181.61;;;18.17;36.57
66396;BME280;53207;51.378;-1.342;2023-02-20T04:10:34;101183.44;;;18.32;36.72
66396;BME280;53207;51.378;-1.342;2023-02-20T04:13:04;101183.74;;;18.12;36.62
66396;BME280;53207;51.378;-1.342;2023-02-20T04:15:32;101182.74;;;18.17;36.50
66396;BME280;53207;51.378;-1.342;2023-02-20T04:18:05;101176.26;;;18.13;36.53
66396;BME280;53207;51.378;-1.342;2023-02-20T04:20:33;101178.39;;;18.12;36.52
66396;BME280;53207;51.378;-1.342;2023-02-20T04:23:09;101183.42;;;18.06;36.62
66396;BME280;53207;51.378;-1.342;2023-02-20T04:25:42;101182.38;;;17.90;36.49
66396;BME280;53207;51.378;-1.342;2023-02-20T04:28:12;101181.13;;;18.07;36.59
66396;BME280;53207;51.378;-1.342;2023-02-20T04:30:39;101178.00;;;18.04;36.59
66396;BME280;53207;51.378;-1.342;2023-02-20T04:33:08;101185.78;;;18.05;36.58
66396;BME280;53207;51.378;-1.342;2023-02-20T04:35:35;101189.13;;;18.09;36.49
66396;BME280;53207;51.378;-1.342;2023-02-20T04:38:03;101187.80;;;18.01;36.58
66396;BME280;53207;51.378;-1.342;2023-02-20T04:40:30;101187.40;;;17.99;36.61
66396;BME280;53207;51.378;-1.342;2023-02-20T04:42:58;101188.83;;;17.97;36.59
66396;BME280;53207;51.378;-1.342;2023-02-20T04:45:25;101189.45;;;17.99;36.59
66396;BME280;53207;51.378;-1.342;2023-02-20T04:47:52;101191.77;;;18.01;36.53
66396;BME280;53207;51.378;-1.342;2023-02-20T04:50:27;101195.22;;;17.99;36.52
66396;BME280;53207;51.378;-1.342;2023-02-20T04:52:55;101193.36;;;17.85;36.69
66396;BME280;53207;51.378;-1.342;2023-02-20T04:55:23;101196.62;;;18.09;36.71
66396;BME280;53207;51.378;-1.342;2023-02-20T04:57:51;101189.15;;;17.78;36.74
66396;BME280;53207;51.378;-1.342;2023-02-20T05:00:19;101186.02;;;17.82;36.69
66396;BME280;53207;51.378;-1.342;2023-02-20T05:02:46;101185.40;;;17.77;36.76
66396;BME280;53207;51.378;-1.342;2023-02-20T05:05:17;101185.97;;;17.66;36.86
66396;BME280;53207;51.378;-1.342;2023-02-20T05:07:45;101182.01;;;17.80;36.66
66396;BME280;53207;51.378;-1.342;2023-02-20T05:10:13;101181.21;;;17.75;36.68
66396;BME280;53207;51.378;-1.342;2023-02-20T05:12:41;101185.89;;;17.75;36.69
66396;BME280;53207;51.378;-1.342;2023-02-20T05:15:09;101188.12;;;17.82;36.59
66396;BME280;53207;51.378;-1.342;2023-02-20T05:17:36;101190.73;;;17.87;36.51
66396;BME280;53207;51.378;-1.342;2023-02-20T05:20:05;101186.77;;;17.83;36.55
66396;BME280;53207;51.378;-1.342;2023-02-20T05:22:32;101185.33;;;17.81;36.54
66396;BME280;53207;51.378;-1.342;2023-02-20T05:25:00;101183.65;;;17.84;36.49
66396;BME280;53207;51.378;-1.342;2023-02-20T05:27:28;101185.94;;;17.84;36.49
66396;BME280;53207;51.378;-1.342;2023-02-20T05:29:57;101189.83;;;17.75;36.58
66396;BME280;53207;51.378;-1.342;2023-02-20T05:32:27;101188.88;;;18.09;36.46
66396;BME280;53207;51.378;-1.342;2023-02-20T05:34:54;101192.66;;;17.66;36.67
66396;BME280;53207;51.378;-1.342;2023-02-20T05:37:23;101191.81;;;17.76;36.52
66396;BME280;53207;51.378;-1.342;2023-02-20T05:39:51;101192.50;;;17.73;36.57
66396;BME280;53207;51.378;-1.342;2023-02-20T05:42:18;101190.27;;;17.56;36.79
66396;BME280;53207;51.378;-1.342;2023-02-20T05:44:45;101187.50;;;17.62;36.72
66396;BME280;53207;51.378;-1.342;2023-02-20T05:47:12;101187.32;;;17.55;36.77
66396;BME280;53207;51.378;-1.342;2023-02-20T05:49:40;101184.30;;;17.54;36.80
66396;BME280;53207;51.378;-1.342;2023-02-20T05:52:07;101182.34;;;17.56;36.78
66396;BME280;53207;51.378;-1.342;2023-02-20T05:54:34;101183.38;;;17.74;36.89
66396;BME280;53207;51.378;-1.342;2023-02-20T05:57:02;101181.74;;;17.43;36.94
66396;BME280;53207;51.378;-1.342;2023-02-20T05:59:29;101176.21;;;17.35;37.04
66396;BME280;53207;51.378;-1.342;2023-02-20T06:01:57;101172.54;;;17.90;36.95
66396;BME280;53207;51.378;-1.342;2023-02-20T06:04:25;101180.97;;;17.73;36.91
66396;BME280;53207;51.378;-1.342;2023-02-20T06:06:53;101176.25;;;17.71;36.89
66396;BME280;53207;51.378;-1.342;2023-02-20T06:09:20;101173.75;;;17.31;37.10
66396;BME280;53207;51.378;-1.342;2023-02-20T06:11:49;101173.86;;;17.43;36.94
66396;BME280;53207;51.378;-1.342;2023-02-20T06:14:20;101173.01;;;17.40;36.97
66396;BME280;53207;51.378;-1.342;2023-02-20T06:16:47;101172.00;;;17.71;36.92
66396;BME280;53207;51.378;-1.342;2023-02-20T06:19:18;101169.90;;;17.76;37.07
66396;BME280;53207;51.378;-1.342;2023-02-20T06:21:46;101169.16;;;17.89;36.90
66396;BME280;53207;51.378;-1.342;2023-02-20T06:24:14;101170.82;;;17.39;36.88
66396;BME280;53207;51.378;-1.342;2023-02-20T06:26:41;101168.48;;;17.60;36.92
66396;BME280;53207;51.378;-1.342;2023-02-20T06:29:09;101170.94;;;17.76;37.02
66396;BME280;53207;51.378;-1.342;2023-02-20T06:31:36;101166.31;;;17.26;37.02
66396;BME280;53207;51.378;-1.342;2023-02-20T06:34:04;101166.15;;;17.35;36.87
66396;BME280;53207;51.378;-1.342;2023-02-20T06:36:34;101169.43;;;17.69;36.76
66396;BME280;53207;51.378;-1.342;2023-02-20T06:39:02;101167.58;;;17.40;36.77
66396;BME280;53207;51.378;-1.342;2023-02-20T06:41:30;101172.88;;;17.97;36.74
66396;BME280;53207;51.378;-1.342;2023-02-20T06:43:57;101169.58;;;17.79;36.74
66396;BME280;53207;51.378;-1.342;2023-02-20T06:46:24;101173.10;;;17.61;36.79
66396;BME280;53207;51.378;-1.342;2023-02-20T06:48:54;101174.49;;;18.01;36.79
66396;BME280;53207;51.378;-1.342;2023-02-20T06:51:26;101175.08;;;17.79;36.86
66396;BME280;53207;51.378;-1.342;2023-02-20T06:53:53;101167.93;;;17.93;36.80
66396;BME280;53207;51.378;-1.342;2023-02-20T06:56:23;101163.41;;;18.32;36.70
66396;BME280;53207;51.378;-1.342;2023-02-20T06:58:51;101163.65;;;18.18;36.61
66396;BME280;53207;51.378;-1.342;2023-02-20T07:01:20;101160.84;;;18.30;36.51
66396;BME280;53207;51.378;-1.342;2023-02-20T07:03:48;101150.72;;;18.36;36.47
66396;BME280;53207;51.378;-1.342;2023-02-20T07:06:15;101144.01;;;18.54;36.33
66396;BME280;53207;51.378;-1.342;2023-02-20T07:08:43;101146.90;;;18.43;36.24
66396;BME280;53207;51.378;-1.342;2023-02-20T07:11:10;101138.94;;;18.74;36.21
66396;BME280;53207;51.378;-1.342;2023-02-20T07:13:38;101137.06;;;18.87;36.12
66396;BME280;53207;51.378;-1.342;2023-02-20T07:16:07;101137.40;;;18.92;36.12
66396;BME280;53207;51.378;-1.342;2023-02-20T07:18:34;101137.73;;;19.06;36.02
66396;BME280;53207;51.378;-1.342;2023-02-20T07:21:02;101140.00;;;18.62;36.02
66396;BME280;53207;51.378;-1.342;2023-02-20T07:23:29;101140.98;;;18.94;35.98
66396;BME280;53207;51.378;-1.342;2023-02-20T07:25:56;101137.92;;;18.76;35.90
66396;BME280;53207;51.378;-1.342;2023-02-20T07:28:23;101137.01;;;19.36;35.82
66396;BME280;53207;51.378;-1.342;2023-02-20T07:30:51;101140.40;;;19.17;35.82
66396;BME280;53207;51.378;-1.342;2023-02-20T07:33:18;101139.74;;;18.92;35.82
66396;BME280;53207;51.378;-1.342;2023-02-20T07:35:45;101138.06;;;18.92;35.84
66396;BME280;53207;51.378;-1.342;2023-02-20T07:38:13;101136.45;;;19.15;36.00
66396;BME280;53207;51.378;-1.342;2023-02-20T07:40:40;101139.67;;;18.93;35.94
66396;BME280;53207;51.378;-1.342;2023-02-20T07:43:07;101142.10;;;19.02;36.10
66396;BME280;53207;51.378;-1.342;2023-02-20T07:45:34;101141.96;;;19.15;36.05
66396;BME280;53207;51.378;-1.342;2023-02-20T07:48:02;101141.68;;;19.13;36.11
66396;BME280;53207;51.378;-1.342;2023-02-20T07:50:29;101151.21;;;19.19;36.02
66396;BME280;53207;51.378;-1.342;2023-02-20T07:52:56;101149.73;;;19.24;35.96
66396;BME280;53207;51.378;-1.342;2023-02-20T07:55:24;101153.61;;;19.18;36.31
66396;BME280;53207;51.378;-1.342;2023-02-20T07:57:51;101150.82;;;19.01;36.17
66396;BME280;53207;51.378;-1.342;2023-02-20T08:00:19;101149.34;;;19.22;36.14
66396;BME280;53207;51.378;-1.342;2023-02-20T08:02:47;101160.34;;;19.21;36.07
66396;BME280;53207;51.378;-1.342;2023-02-20T08:05:15;101166.09;;;19.39;36.12
66396;BME280;53207;51.378;-1.342;2023-02-20T08:07:44;101172.77;;;19.06;36.20
66396;BME280;53207;51.378;-1.342;2023-02-20T08:10:12;101174.03;;;18.92;36.34
66396;BME280;53207;51.378;-1.342;2023-02-20T08:12:40;101169.93;;;19.23;36.21
66396;BME280;53207;51.378;-1.342;2023-02-20T08:15:08;101172.78;;;18.91;36.23
66396;BME280;53207;51.378;-1.342;2023-02-20T08:17:35;101175.84;;;18.86;36.29
66396;BME280;53207;51.378;-1.342;2023-02-20T08:20:03;101180.46;;;18.73;36.39
66396;BME280;53207;51.378;-1.342;2023-02-20T08:22:31;101182.96;;;19.10;36.26
66396;BME280;53207;51.378;-1.342;2023-02-20T08:24:58;101181.48;;;18.97;36.38
66396;BME280;53207;51.378;-1.342;2023-02-20T08:27:26;101176.99;;;18.85;36.17
66396;BME280;53207;51.378;-1.342;2023-02-20T08:29:53;101190.05;;;18.75;36.25
66396;BME280;53207;51.378;-1.342;2023-02-20T08:32:20;101191.57;;;18.84;36.10
66396;BME280;53207;51.378;-1.342;2023-02-20T08:34:47;101187.50;;;19.04;36.16
66396;BME280;53207;51.378;-1.342;2023-02-20T08:37:15;101187.18;;;19.20;36.20
66396;BME280;53207;51.378;-1.342;2023-02-20T08:39:43;101190.71;;;18.72;36.16
66396;BME280;53207;51.378;-1.342;2023-02-20T08:42:14;101190.53;;;18.71;36.15
66396;BME280;53207;51.378;-1.342;2023-02-20T08:44:41;101196.55;;;19.01;36.09
66396;BME280;53207;51.378;-1.342;2023-02-20T08:47:08;101197.08;;;18.98;36.11
66396;BME280;53207;51.378;-1.342;2023-02-20T08:49:35;101193.25;;;18.69;36.12
66396;BME280;53207;51.378;-1.342;2023-02-20T08:52:03;101194.21;;;18.64;36.15
66396;BME280;53207;51.378;-1.342;2023-02-20T08:54:30;101197.25;;;18.64;36.13
66396;BME280;53207;51.378;-1.342;2023-02-20T08:56:57;101200.14;;;19.12;36.11
66396;BME280;53207;51.378;-1.342;2023-02-20T08:59:25;101201.61;;;18.90;36.07
66396;BME280;53207;51.378;-1.342;2023-02-20T09:01:52;101197.71;;;19.13;36.04
66396;BME280;53207;51.378;-1.342;2023-02-20T09:04:20;101188.72;;;19.05;36.08
66396;BME280;53207;51.378;-1.342;2023-02-20T09:06:47;101186.15;;;18.80;36.08
66396;BME280;53207;51.378;-1.342;2023-02-20T09:09:15;101187.11;;;18.80;36.02
66396;BME280;53207;51.378;-1.342;2023-02-20T09:11:42;101187.75;;;18.83;35.95
66396;BME280;53207;51.378;-1.342;2023-02-20T09:14:09;101188.35;;;19.01;35.97
66396;BME280;53207;51.378;-1.342;2023-02-20T09:16:36;101186.99;;;18.80;35.90
66396;BME280;53207;51.378;-1.342;2023-02-20T09:19:04;101190.19;;;18.99;35.93
66396;BME280;53207;51.378;-1.342;2023-02-20T09:21:31;101190.54;;;18.79;35.89
66396;BME280;53207;51.378;-1.342;2023-02-20T09:23:58;101189.70;;;19.01;35.87
66396;BME280;53207;51.378;-1.342;2023-02-20T09:26:26;101191.81;;;18.98;35.90
66396;BME280;53207;51.378;-1.342;2023-02-20T09:28:53;101191.29;;;18.64;36.04
66396;BME280;53207;51.378;-1.342;2023-02-20T09:31:20;101186.93;;;18.84;36.01
66396;BME280;53207;51.378;-1.342;2023-02-20T09:33:48;101181.46;;;18.58;36.05
66396;BME280;53207;51.378;-1.342;2023-02-20T09:36:15;101180.14;;;18.31;36.03
66396;BME280;53207;51.378;-1.342;2023-02-20T09:38:42;101178.90;;;18.56;36.02
66396;BME280;53207;51.378;-1.342;2023-02-20T09:41:21;101169.05;;;18.74;36.05
66396;BME280;53207;51.378;-1.342;2023-02-20T09:43:58;101170.47;;;18.44;36.10
66396;BME280;53207;51.378;-1.342;2023-02-20T09:46:27;101164.33;;;18.68;36.08
66396;BME280;53207;51.378;-1.342;2023-02-20T09:49:02;101160.85;;;18.47;36.04
66396;BME280;53207;51.378;-1.342;2023-02-20T09:51:33;101164.38;;;18.50;35.97
66396;BME280;53207;51.378;-1.342;2023-02-20T09:54:05;101164.78;;;18.47;35.96
66396;BME280;53207;51.378;-1.342;2023-02-20T09:56:36;101166.03;;;18.64;36.06
66396;BME280;53207;51.378;-1.342;2023-02-20T09:59:09;101164.40;;;18.42;36.03
66396;BME280;53207;51.378;-1.342;2023-02-20T10:01:41;101158.68;;;18.66;35.97
66396;BME280;53207;51.378;-1.342;2023-02-20T10:04:12;101158.23;;;18.18;35.96
66396;BME280;53207;51.378;-1.342;2023-02-20T10:06:41;101163.79;;;18.70;35.91
66396;BME280;53207;51.378;-1.342;2023-02-20T10:09:13;101171.86;;;18.65;36.01
66396;BME280;53207;51.378;-1.342;2023-02-20T10:11:57;101169.53;;;18.56;36.14
66396;BME280;53207;51.378;-1.342;2023-02-20T10:14:37;101178.30;;;18.56;36.10
66396;BME280;53207;51.378;-1.342;2023-02-20T10:17:19;101173.85;;;18.60;36.04
66396;BME280;53207;51.378;-1.342;2023-02-20T10:19:51;101172.46;;;18.25;36.14
66396;BME280;53207;51.378;-1.342;2023-02-20T10:22:23;101178.27;;;18.25;36.13
66396;BME280;53207;51.378;-1.342;2023-02-20T10:25:00;101180.38;;;18.49;36.08
66396;BME280;53207;51.378;-1.342;2023-02-20T10:27:45;101174.31;;;18.42;36.15
66396;BME280;53207;51.378;-1.342;2023-02-20T10:30:22;101174.98;;;18.40;36.12
66396;BME280;53207;51.378;-1.342;2023-02-20T10:32:55;101177.37;;;18.08;36.21
66396;BME280;53207;51.378;-1.342;2023-02-20T10:35:29;101165.84;;;18.33;36.18
66396;BME280;53207;51.378;-1.342;2023-02-20T10:38:02;101160.86;;;18.34;36.15
66396;BME280;53207;51.378;-1.342;2023-02-20T10:40:35;101159.35;;;18.18;36.10
66396;BME280;53207;51.378;-1.342;2023-02-20T10:43:08;101150.76;;;18.39;36.10
66396;BME280;53207;51.378;-1.342;2023-02-20T10:45:43;101154.45;;;18.33;36.22
66396;BME280;53207;51.378;-1.342;2023-02-20T10:48:13;101148.22;;;18.34;36.19
66396;BME280;53207;51.378;-1.342;2023-02-20T10:50:44;101146.72;;;18.14;36.21
66396;BME280;53207;51.378;-1.342;2023-02-20T10:53:20;101135.98;;;18.34;36.25
66396;BME280;53207;51.378;-1.342;2023-02-20T10:55:53;101133.49;;;18.32;36.30
66396;BME280;53207;51.378;-1.342;2023-02-20T10:58:24;101129.22;;;18.44;36.22
66396;BME280;53207;51.378;-1.342;2023-02-20T11:00:55;101124.29;;;18.51;36.19
66396;BME280;53207;51.378;-1.342;2023-02-20T11:03:29;101123.66;;;18.54;36.36
66396;BME280;53207;51.378;-1.342;2023-02-20T11:06:00;101121.17;;;18.48;36.39
66396;BME280;53207;51.378;-1.342;2023-02-20T11:08:28;101125.21;;;18.54;36.38
66396;BME280;53207;51.378;-1.342;2023-02-20T11:11:00;101126.27;;;18.05;36.33
66396;BME280;53207;51.378;-1.342;2023-02-20T11:13:31;101124.93;;;18.31;36.40
66396;BME280;53207;51.378;-1.342;2023-02-20T11:15:59;101118.29;;;18.49;36.47
66396;BME280;53207;51.378;-1.342;2023-02-20T11:18:30;101125.08;;;18.45;36.48
66396;BME280;53207;51.378;-1.342;2023-02-20T11:20:59;101136.10;;;18.27;36.42
66396;BME280;53207;51.378;-1.342;2023-02-20T11:23:43;101132.11;;;18.48;36.44
66396;BME280;53207;51.378;-1.342;2023-02-20T11:26:25;101138.57;;;18.50;36.41
66396;BME280;53207;51.378;-1.342;2023-02-20T11:28:56;101135.64;;;18.42;36.49
66396;BME280;53207;51.378;-1.342;2023-02-20T11:31:24;101136.20;;;18.45;36.40
66396;BME280;53207;51.378;-1.342;2023-02-20T11:33:54;101133.26;;;18.45;36.40
66396;BME280;53207;51.378;-1.342;2023-02-20T11:36:23;101132.17;;;18.33;36.53
66396;BME280;53207;51.378;-1.342;2023-02-20T11:38:57;101130.04;;;18.18;36.41
66396;BME280;53207;51.378;-1.342;2023-02-20T11:41:30;101131.07;;;18.10;36.47
66396;BME280;53207;51.378;-1.342;2023-02-20T11:44:17;101124.16;;;18.26;36.54
66396;BME280;53207;51.378;-1.342;2023-02-20T11:46:46;101121.78;;;18.22;36.59
66396;BME280;53207;51.378;-1.342;2023-02-20T11:49:29;101120.07;;;18.25;36.51
66396;BME280;53207;51.378;-1.342;2023-02-20T11:52:07;101117.92;;;18.20;36.57
66396;BME280;53207;51.378;-1.342;2023-02-20T11:54:35;101118.40;;;18.18;36.56
66396;BME280;53207;51.378;-1.342;2023-02-20T11:57:04;101118.78;;;18.23;36.51
66396;BME280;53207;51.378;-1.342;2023-02-20T11:59:35;101116.34;;;18.14;36.59
66396;BME280;53207;51.378;-1.342;2023-02-20T12:02:18;101107.93;;;18.15;36.58
66396;BME280;53207;51.378;-1.342;2023-02-20T12:05:03;101105.49;;;18.33;36.34
66396;BME280;53207;51.378;-1.342;2023-02-20T12:07:35;101102.09;;;18.28;36.38
66396;BME280;53207;51.378;-1.342;2023-02-20T12:10:13;101103.68;;;18.41;36.55
66396;BME280;53207;51.378;-1.342;2023-02-20T12:12:42;101099.88;;;18.15;36.54
66396;BME280;53207;51.378;-1.342;2023-02-20T12:15:12;101096.46;;;18.23;36.40
66396;BME280;53207;51.378;-1.342;2023-02-20T12:17:52;101088.97;;;18.23;36.43
66396;BME280;53207;51.378;-1.342;2023-02-20T12:20:25;101078.09;;;18.20;36.44
66396;BME280;53207;51.378;-1.342;2023-02-20T12:23:03;101078.39;;;18.22;36.44
66396;BME280;53207;51.378;-1.342;2023-02-20T12:25:42;101077.00;;;18.14;36.53
66396;BME280;53207;51.378;-1.342;2023-02-20T12:28:20;101074.97;;;18.17;36.50
66396;BME280;53207;51.378;-1.342;2023-02-20T12:31:03;101071.69;;;18.14;36.52
66396;BME280;53207;51.378;-1.342;2023-02-20T12:33:43;101072.89;;;18.25;36.36
66396;BME280;53207;51.378;-1.342;2023-02-20T12:36:25;101066.53;;;18.24;36.36
66396;BME280;53207;51.378;-1.342;2023-02-20T12:38:58;101067.83;;;18.19;36.44
66396;BME280;53207;51.378;-1.342;2023-02-20T12:41:32;101062.77;;;18.31;36.27
66396;BME280;53207;51.378;-1.342;2023-02-20T12:44:14;101053.74;;;18.16;36.47
66396;BME280;53207;51.378;-1.342;2023-02-20T12:46:53;101055.54;;;17.93;36.46
66396;BME280;53207;51.378;-1.342;2023-02-20T12:49:41;101053.59;;;18.22;36.40
66396;BME280;53207;51.378;-1.342;2023-02-20T12:52:27;101047.90;;;18.18;36.39
66396;BME280;53207;51.378;-1.342;2023-02-20T12:55:02;101043.15;;;18.21;36.37
66396;BME280;53207;51.378;-1.342;2023-02-20T12:57:39;101043.37;;;18.20;36.36
66396;BME280;53207;51.378;-1.342;2023-02-20T13:00:20;101031.25;;;18.23;36.36